createdAt,value
2022-08-08T00:02:30.487Z,54.37
2022-08-08T00:04:56.386Z,53.40
2022-08-08T00:07:35.099Z,52.86
2022-08-08T00:10:12.351Z,52.96
2022-08-08T00:12:48.384Z,52.64
2022-08-08T00:15:56.784Z,53.09
2022-08-08T00:18:26.822Z,53.16
2022-08-08T00:21:00.736Z,53.68
2022-08-08T00:23:47.449Z,54.26
2022-08-08T00:26:29.067Z,54.71
2022-08-08T00:29:07.974Z,55.98
2022-08-08T00:32:20.528Z,56.62
2022-08-08T00:35:08.042Z,57.01
2022-08-08T00:38:01.366Z,57.47
2022-08-08T00:41:07.226Z,58.40
2022-08-08T00:44:15.438Z,59.10
2022-08-08T00:47:19.348Z,59.81
2022-08-08T00:50:52.465Z,60.28
2022-08-08T00:54:04.507Z,61.15
2022-08-08T00:57:19.902Z,61.92
2022-08-08T01:00:13.792Z,62.49
2022-08-08T01:03:58.832Z,62.99
2022-08-08T01:06:32.897Z,63.28
2022-08-08T01:09:41.346Z,63.98
2022-08-08T01:12:39.277Z,64.82
2022-08-08T01:15:54.214Z,64.95
2022-08-08T01:18:52.809Z,65.45
2022-08-08T01:22:12.791Z,65.73
2022-08-08T01:25:40.708Z,66.28
2022-08-08T01:28:48.003Z,66.75
2022-08-08T01:32:15.548Z,66.72
2022-08-08T01:35:33.066Z,66.91
2022-08-08T01:38:39.041Z,67.34
2022-08-08T01:41:16.136Z,67.43
2022-08-08T01:43:53.436Z,67.90
2022-08-08T01:46:52.393Z,67.88
2022-08-08T01:49:37.914Z,68.33
2022-08-08T01:53:28.785Z,68.12
2022-08-08T01:55:45.707Z,68.67
2022-08-08T01:58:38.522Z,68.89
2022-08-08T02:01:19.094Z,68.98
2022-08-08T02:04:05.474Z,68.99
2022-08-08T02:07:00.495Z,68.95
2022-08-08T02:10:02.055Z,69.03
2022-08-08T02:12:50.587Z,69.44
2022-08-08T02:15:30.438Z,69.24
2022-08-08T02:18:10.819Z,69.13
2022-08-08T02:21:13.235Z,69.34
2022-08-08T02:23:49.331Z,69.13
2022-08-08T02:26:28.703Z,69.11
2022-08-08T02:29:22.891Z,68.84
2022-08-08T02:32:07.294Z,69.48
2022-08-08T02:35:10.871Z,69.31
2022-08-08T02:37:56.668Z,69.34
2022-08-08T02:40:40.291Z,69.11
2022-08-08T02:44:42.335Z,69.26
2022-08-08T02:47:20.610Z,68.96
2022-08-08T02:50:39.990Z,69.03
2022-08-08T02:53:36.095Z,68.60
2022-08-08T02:56:44.376Z,69.29
2022-08-08T02:59:57.264Z,69.56
2022-08-08T03:03:13.744Z,69.42
2022-08-08T03:06:34.818Z,69.00
2022-08-08T03:10:00.945Z,68.78
2022-08-08T03:13:01.789Z,68.40
2022-08-08T03:16:05.310Z,67.77
2022-08-08T03:18:46.692Z,68.21
2022-08-08T03:21:15.741Z,67.98
2022-08-08T03:23:57.515Z,67.61
2022-08-08T03:26:42.141Z,67.35
2022-08-08T03:29:18.757Z,67.15
2022-08-08T03:32:08.636Z,66.54
2022-08-08T03:34:39.083Z,65.33
2022-08-08T03:37:58.973Z,64.24
2022-08-08T03:40:03.930Z,63.32
2022-08-08T03:42:33.265Z,62.60
2022-08-08T03:45:02.282Z,63.43
2022-08-08T03:47:59.905Z,61.62
2022-08-08T03:50:29.465Z,61.17
2022-08-08T03:53:07.388Z,61.43
2022-08-08T03:55:56.067Z,60.66
2022-08-08T03:58:36.374Z,60.61
2022-08-08T04:01:23.285Z,59.68
2022-08-08T04:03:57.878Z,59.61
2022-08-08T04:06:29.884Z,59.03
2022-08-08T04:09:10.316Z,57.99
2022-08-08T04:11:58.866Z,57.38
2022-08-08T04:14:34.566Z,57.58
2022-08-08T04:17:07.136Z,56.94
2022-08-08T04:19:51.885Z,57.73
2022-08-08T04:22:24.202Z,58.89
2022-08-08T04:24:57.466Z,59.40
2022-08-08T04:28:01.743Z,57.66
2022-08-08T04:30:19.392Z,59.08
2022-08-08T04:32:50.521Z,58.43
2022-08-08T04:35:22.678Z,58.58
2022-08-08T04:37:52.056Z,57.83
2022-08-08T04:40:24.077Z,58.66
2022-08-08T04:42:57.999Z,56.83
2022-08-08T04:45:29.966Z,56.49
2022-08-08T04:48:00.350Z,54.96
2022-08-08T04:50:34.364Z,54.81
2022-08-08T04:53:51.992Z,52.87
2022-08-08T04:55:56.467Z,50.91
2022-08-08T04:58:27.511Z,49.18
2022-08-08T05:00:57.753Z,47.85
2022-08-08T05:04:10.100Z,48.88
2022-08-08T05:06:25.356Z,50.50
2022-08-08T05:08:56.247Z,51.10
2022-08-08T05:11:38.775Z,49.95
2022-08-08T05:14:12.378Z,48.38
2022-08-08T05:16:52.755Z,47.66
2022-08-08T05:20:09.733Z,46.17
2022-08-08T05:22:17.555Z,47.17
2022-08-08T05:24:48.354Z,45.15
2022-08-08T05:27:17.395Z,45.70
2022-08-08T05:29:51.912Z,45.06
2022-08-08T05:32:24.754Z,43.53
2022-08-08T05:34:59.537Z,44.88
2022-08-08T05:37:49.339Z,45.71
2022-08-08T05:40:28.774Z,45.00
2022-08-08T05:43:17.266Z,46.67
2022-08-08T05:46:02.921Z,45.26
2022-08-08T05:48:34.564Z,44.04
2022-08-08T05:51:13.387Z,44.46
2022-08-08T05:54:25.469Z,44.02
2022-08-08T05:56:38.794Z,43.88
2022-08-08T05:59:59.730Z,41.63
2022-08-08T06:02:34.758Z,41.52
2022-08-08T06:05:06.704Z,40.97
2022-08-08T06:08:02.331Z,40.13
2022-08-08T06:10:34.887Z,40.51
2022-08-08T06:13:08.431Z,39.99
2022-08-08T06:15:51.313Z,41.27
2022-08-08T06:18:25.583Z,41.66
2022-08-08T06:20:58.976Z,39.35
2022-08-08T06:23:48.743Z,39.17
2022-08-08T06:26:38.688Z,38.39
2022-08-08T06:29:48.862Z,38.40
2022-08-08T06:32:09.824Z,37.74
2022-08-08T06:34:42.496Z,39.08
2022-08-08T06:37:25.019Z,38.86
2022-08-08T06:40:00.563Z,37.00
2022-08-08T06:42:34.270Z,38.09
2022-08-08T06:45:05.507Z,37.35
2022-08-08T06:47:58.208Z,37.89
2022-08-08T06:50:31.956Z,36.79
2022-08-08T06:53:14.246Z,36.17
2022-08-08T06:56:02.233Z,31.16
2022-08-08T06:58:33.221Z,31.28
2022-08-08T07:02:11.690Z,32.05
2022-08-08T07:04:39.671Z,29.95
2022-08-08T07:06:52.008Z,29.70
2022-08-08T07:09:27.039Z,29.89
2022-08-08T07:12:10.583Z,31.69
2022-08-08T07:14:51.569Z,32.61
2022-08-08T07:17:31.635Z,30.11
2022-08-08T07:20:19.919Z,31.28
2022-08-08T07:23:03.143Z,31.20
2022-08-08T07:25:35.197Z,32.33
2022-08-08T07:28:12.461Z,31.08
2022-08-08T07:30:50.654Z,32.80
2022-08-08T07:33:21.214Z,32.22
2022-08-08T07:35:51.446Z,32.03
2022-08-08T07:38:28.419Z,32.46
2022-08-08T07:40:59.159Z,31.62
2022-08-08T07:43:37.122Z,31.49
2022-08-08T07:46:23.791Z,32.15
2022-08-08T07:48:55.314Z,30.83
2022-08-08T07:51:45.070Z,31.07
2022-08-08T07:54:26.934Z,33.98
2022-08-08T07:57:02.999Z,34.87
2022-08-08T07:59:37.690Z,35.39
2022-08-08T08:02:34.864Z,36.30
2022-08-08T08:05:03.667Z,36.58
2022-08-08T08:07:38.784Z,34.69
2022-08-08T08:10:12.476Z,35.20
2022-08-08T08:12:50.382Z,34.25
2022-08-08T08:15:23.334Z,33.34
2022-08-08T08:17:55.914Z,35.04
2022-08-08T08:20:30.113Z,35.13
2022-08-08T08:22:59.126Z,37.00
2022-08-08T08:25:42.752Z,39.10
2022-08-08T08:28:17.125Z,40.33
2022-08-08T08:30:52.211Z,40.94
2022-08-08T08:33:21.921Z,40.30
2022-08-08T08:36:17.742Z,38.73
2022-08-08T08:38:39.083Z,37.79
2022-08-08T08:41:22.336Z,37.19
2022-08-08T08:43:52.438Z,38.10
2022-08-08T08:46:47.272Z,38.12
2022-08-08T08:49:19.357Z,37.91
2022-08-08T08:51:51.582Z,37.46
2022-08-08T08:54:25.240Z,36.76
2022-08-08T08:56:56.740Z,36.41
2022-08-08T08:59:58.927Z,36.37
2022-08-08T09:02:22.007Z,37.46
2022-08-08T09:04:53.122Z,37.41
2022-08-08T09:07:39.452Z,36.94
2022-08-08T09:10:17.415Z,37.09
2022-08-08T09:12:48.548Z,36.80
2022-08-08T09:15:41.617Z,35.50
2022-08-08T09:18:08.775Z,36.23
2022-08-08T09:21:56.136Z,35.93
2022-08-08T09:23:33.557Z,35.29
2022-08-08T09:26:14.032Z,35.26
2022-08-08T09:28:45.350Z,35.67
2022-08-08T09:31:17.820Z,35.64
2022-08-08T09:34:16.037Z,34.67
2022-08-08T09:36:36.225Z,35.38
2022-08-08T09:39:10.334Z,35.46
2022-08-08T09:41:54.714Z,35.38
2022-08-08T09:44:51.575Z,36.69
2022-08-08T09:48:02.055Z,36.92
2022-08-08T09:50:14.074Z,36.66
2022-08-08T09:52:59.414Z,36.84
2022-08-08T09:55:51.873Z,37.49
2022-08-08T09:58:27.931Z,36.59
2022-08-08T10:01:14.503Z,36.29
2022-08-08T10:03:55.808Z,36.17
2022-08-08T10:06:29.327Z,37.17
2022-08-08T10:08:57.883Z,37.64
2022-08-08T10:12:28.026Z,37.03
2022-08-08T10:14:34.815Z,35.55
2022-08-08T10:17:57.235Z,34.39
2022-08-08T10:20:00.222Z,33.00
2022-08-08T10:22:30.454Z,33.08
2022-08-08T10:25:05.303Z,32.38
2022-08-08T10:27:43.165Z,33.41
2022-08-08T10:30:16.250Z,34.24
2022-08-08T10:33:03.062Z,33.64
2022-08-08T10:36:09.585Z,32.88
2022-08-08T10:38:21.611Z,32.93
2022-08-08T10:40:53.904Z,33.58
2022-08-08T10:43:23.322Z,33.75
2022-08-08T10:45:55.558Z,34.39
2022-08-08T10:48:38.920Z,34.98
2022-08-08T10:51:26.092Z,35.94
2022-08-08T10:53:59.109Z,36.09
2022-08-08T10:56:35.359Z,35.45
2022-08-08T10:59:08.074Z,35.22
2022-08-08T11:01:39.013Z,35.10
2022-08-08T11:04:11.889Z,33.52
2022-08-08T11:06:41.813Z,34.98
2022-08-08T11:09:19.960Z,35.24
2022-08-08T11:12:04.625Z,34.21
2022-08-08T11:14:50.616Z,35.01
2022-08-08T11:17:59.876Z,36.03
2022-08-08T11:20:14.585Z,34.45
2022-08-08T11:22:51.778Z,35.36
2022-08-08T11:25:52.781Z,35.75
2022-08-08T11:28:18.580Z,34.59
2022-08-08T11:30:50.265Z,33.52
2022-08-08T11:33:51.128Z,34.76
2022-08-08T11:36:16.176Z,35.16
2022-08-08T11:38:55.451Z,35.31
2022-08-08T11:41:28.047Z,34.64
2022-08-08T11:44:01.883Z,35.04
2022-08-08T11:46:32.931Z,34.81
2022-08-08T11:49:05.312Z,35.08
2022-08-08T11:51:40.498Z,34.87
2022-08-08T11:54:31.709Z,35.34
2022-08-08T11:57:17.063Z,35.64
2022-08-08T11:59:58.592Z,34.40
2022-08-08T12:02:33.664Z,34.96
2022-08-08T12:05:03.975Z,34.53
2022-08-08T12:07:44.600Z,34.83
2022-08-08T12:10:18.840Z,34.47
2022-08-08T12:12:48.935Z,34.98
2022-08-08T12:15:28.342Z,34.99
2022-08-08T12:17:56.851Z,34.41
2022-08-08T12:20:25.580Z,34.38
2022-08-08T12:22:57.148Z,34.72
2022-08-08T12:25:29.885Z,34.00
2022-08-08T12:28:15.729Z,35.23
2022-08-08T12:30:48.153Z,34.72
2022-08-08T12:33:20.562Z,33.84
2022-08-08T12:35:52.872Z,34.53
2022-08-08T12:38:31.612Z,32.67
2022-08-08T12:41:07.020Z,31.51
2022-08-08T12:44:00.625Z,31.62
2022-08-08T12:46:29.613Z,32.56
2022-08-08T12:51:58.989Z,32.73
2022-08-08T12:54:36.322Z,33.84
2022-08-08T12:57:17.557Z,33.71
2022-08-08T13:00:03.585Z,32.74
2022-08-08T13:02:51.371Z,31.68
2022-08-08T13:05:26.792Z,31.73
2022-08-08T13:08:20.591Z,31.33
2022-08-08T13:10:55.576Z,30.67
2022-08-08T13:13:34.633Z,29.82
2022-08-08T13:16:19.177Z,30.68
2022-08-08T13:18:57.319Z,29.84
2022-08-08T13:21:36.453Z,31.38
2022-08-08T13:24:18.999Z,31.44
2022-08-08T13:27:11.996Z,30.04
2022-08-08T13:29:51.448Z,30.95
2022-08-08T13:32:23.770Z,30.84
2022-08-08T13:34:55.562Z,30.72
2022-08-08T13:37:52.072Z,31.30
2022-08-08T13:40:17.998Z,31.65
2022-08-08T13:42:58.435Z,32.45
2022-08-08T13:45:27.407Z,31.62
2022-08-08T13:47:59.691Z,31.77
2022-08-08T13:50:36.487Z,31.29
2022-08-08T13:53:24.602Z,31.92
2022-08-08T13:56:00.495Z,32.10
2022-08-08T13:58:30.670Z,32.42
2022-08-08T14:00:58.943Z,32.48
2022-08-08T14:03:46.979Z,32.89
2022-08-08T14:06:32.559Z,32.47
2022-08-08T14:09:25.228Z,32.86
2022-08-08T14:11:50.393Z,33.32
2022-08-08T14:14:21.212Z,33.36
2022-08-08T14:16:55.489Z,32.75
2022-08-08T14:19:58.269Z,32.87
2022-08-08T14:22:24.237Z,32.63
2022-08-08T14:24:55.910Z,32.92
2022-08-08T14:27:30.725Z,33.22
2022-08-08T14:30:17.387Z,33.90
2022-08-08T14:32:53.266Z,34.42
2022-08-08T14:35:23.625Z,33.46
2022-08-08T14:38:00.299Z,35.23
2022-08-08T14:40:32.894Z,34.71
2022-08-08T14:43:01.869Z,35.36
2022-08-08T14:46:02.671Z,37.14
2022-08-08T14:48:41.846Z,37.25
2022-08-08T14:51:24.031Z,39.56
2022-08-08T14:54:01.630Z,40.31
2022-08-08T14:56:29.723Z,41.80
2022-08-08T14:59:00.268Z,41.39
2022-08-08T15:01:37.292Z,42.57
2022-08-08T15:04:09.661Z,45.26
2022-08-08T15:06:42.611Z,45.57
2022-08-08T15:09:13.537Z,45.81
2022-08-08T15:11:46.571Z,47.70
2022-08-08T15:14:26.320Z,47.48
2022-08-08T15:16:56.982Z,48.63
2022-08-08T15:19:27.795Z,49.01
2022-08-08T15:21:57.737Z,50.19
2022-08-08T15:24:31.206Z,49.94
2022-08-08T15:27:19.921Z,49.03
2022-08-08T15:29:48.926Z,49.16
2022-08-08T15:32:22.531Z,49.75
2022-08-08T15:34:52.039Z,49.38
2022-08-08T15:37:21.705Z,49.93
2022-08-08T15:39:50.281Z,51.73
2022-08-08T15:42:31.774Z,50.90
2022-08-08T15:45:10.989Z,52.41
2022-08-08T15:47:40.790Z,53.24
2022-08-08T15:50:49.981Z,51.60
2022-08-08T15:53:18.901Z,52.59
2022-08-08T15:55:47.322Z,53.07
2022-08-08T15:58:18.354Z,53.69
2022-08-08T16:00:56.436Z,53.97
2022-08-08T16:03:26.474Z,52.88
2022-08-08T16:06:01.825Z,55.64
2022-08-08T16:08:30.600Z,54.57
2022-08-08T16:13:10.125Z,55.65
2022-08-08T16:13:48.031Z,56.51
2022-08-08T16:16:22.209Z,54.18
2022-08-08T16:18:57.037Z,56.58
2022-08-08T16:21:29.520Z,56.42
2022-08-08T16:23:58.651Z,56.25
2022-08-08T16:26:33.777Z,55.97
2022-08-08T16:29:07.729Z,55.12
2022-08-08T16:31:37.247Z,54.53
2022-08-08T16:34:07.183Z,53.18
2022-08-08T16:36:38.549Z,51.68
2022-08-08T16:39:28.479Z,51.50
2022-08-08T16:42:01.179Z,50.85
2022-08-08T16:44:34.222Z,50.03
2022-08-08T16:47:17.693Z,49.13
2022-08-08T16:49:51.887Z,48.65
2022-08-08T16:55:02.065Z,48.05
2022-08-08T16:55:33.700Z,47.90
2022-08-08T16:58:14.054Z,48.30
2022-08-08T17:00:49.262Z,48.61
2022-08-08T17:03:25.043Z,48.98
2022-08-08T17:06:35.747Z,48.48
2022-08-08T17:08:58.713Z,47.94
2022-08-08T17:11:27.923Z,47.90
2022-08-08T17:14:01.497Z,47.83
2022-08-08T17:16:30.432Z,46.63
2022-08-08T17:19:00.706Z,45.14
2022-08-08T17:21:41.350Z,43.90
2022-08-08T17:24:20.644Z,43.25
2022-08-08T17:26:53.149Z,43.75
2022-08-08T17:29:24.859Z,44.41
2022-08-08T17:31:53.451Z,44.52
2022-08-08T17:34:53.828Z,44.16
2022-08-08T17:37:13.493Z,43.72
2022-08-08T17:40:04.868Z,43.15
2022-08-08T17:42:30.276Z,42.48
2022-08-08T17:44:58.632Z,42.22
2022-08-08T17:47:40.587Z,42.28
2022-08-08T17:50:10.593Z,42.27
2022-08-08T17:52:43.219Z,42.27
2022-08-08T17:56:07.154Z,42.62
2022-08-08T17:58:01.999Z,42.46
2022-08-08T18:00:31.987Z,42.80
2022-08-08T18:03:08.627Z,42.83
2022-08-08T18:05:44.262Z,42.99
2022-08-08T18:08:37.516Z,42.87
2022-08-08T18:11:11.939Z,42.87
2022-08-08T18:13:45.267Z,42.99
2022-08-08T18:16:20.569Z,42.28
2022-08-08T18:18:53.286Z,41.81
2022-08-08T18:21:35.593Z,41.75
2022-08-08T18:24:19.285Z,41.92
2022-08-08T18:26:55.059Z,41.77
2022-08-08T18:29:29.740Z,41.83
2022-08-08T18:31:59.028Z,41.74
2022-08-08T18:34:28.073Z,42.02
2022-08-08T18:36:56.814Z,41.79
2022-08-08T18:39:28.522Z,41.78
2022-08-08T18:42:02.912Z,41.71
2022-08-08T18:44:35.791Z,41.64
2022-08-08T18:47:05.230Z,41.49
2022-08-08T18:49:40.934Z,41.32
2022-08-08T18:52:23.562Z,41.39
2022-08-08T18:55:00.216Z,41.22
2022-08-08T18:57:41.939Z,41.18
2022-08-08T19:00:19.692Z,41.05
2022-08-08T19:02:55.930Z,40.88
2022-08-08T19:05:30.504Z,40.22
2022-08-08T19:08:03.058Z,39.63
2022-08-08T19:10:33.863Z,39.64
2022-08-08T19:13:04.176Z,39.18
2022-08-08T19:15:40.126Z,38.93
2022-08-08T19:18:33.617Z,38.56
2022-08-08T19:20:59.606Z,38.58
2022-08-08T19:23:27.907Z,37.90
2022-08-08T19:26:20.501Z,37.74
2022-08-08T19:28:46.897Z,38.16
2022-08-08T19:31:17.910Z,38.14
2022-08-08T19:33:52.300Z,37.95
2022-08-08T19:36:39.044Z,38.02
2022-08-08T19:39:13.758Z,38.19
2022-08-08T19:41:44.057Z,37.92
2022-08-08T19:44:12.890Z,37.81
2022-08-08T19:46:55.215Z,38.18
2022-08-08T19:49:24.893Z,38.16
2022-08-08T19:51:54.362Z,38.37
2022-08-08T19:54:23.997Z,38.55
2022-08-08T19:56:53.640Z,38.68
2022-08-08T19:59:22.481Z,38.04
2022-08-08T20:02:03.533Z,38.12
2022-08-08T20:04:33.624Z,38.02
2022-08-08T20:07:03.503Z,37.79
2022-08-08T20:09:55.368Z,38.24
2022-08-08T20:12:32.444Z,38.41
2022-08-08T20:15:14.866Z,38.70
2022-08-08T20:17:46.663Z,38.44
2022-08-08T20:20:19.074Z,38.53
2022-08-08T20:22:53.855Z,38.41
2022-08-08T20:25:24.643Z,38.15
2022-08-08T20:27:56.579Z,38.26
2022-08-08T20:30:52.690Z,38.96
2022-08-08T20:35:59.504Z,39.27
2022-08-08T20:38:33.416Z,39.35
2022-08-08T20:41:12.135Z,39.84
2022-08-08T20:43:49.590Z,39.34
2022-08-08T20:46:20.566Z,39.39
2022-08-08T20:48:51.417Z,39.84
2022-08-08T20:51:20.788Z,39.85
2022-08-08T20:54:00.727Z,39.65
2022-08-08T20:56:34.944Z,38.91
2022-08-08T20:59:08.822Z,38.45
2022-08-08T21:02:05.815Z,37.85
2022-08-08T21:04:28.622Z,37.07
2022-08-08T21:06:57.250Z,36.60
2022-08-08T21:09:31.742Z,35.90
2022-08-08T21:12:13.622Z,35.32
2022-08-08T21:14:49.076Z,35.26
2022-08-08T21:17:17.385Z,35.41
2022-08-08T21:19:47.947Z,35.01
2022-08-08T21:22:16.216Z,35.37
2022-08-08T21:24:52.697Z,35.32
2022-08-08T21:28:05.054Z,34.80
2022-08-08T21:30:19.411Z,34.16
2022-08-08T21:32:51.547Z,33.88
2022-08-08T21:36:18.358Z,33.94
2022-08-08T21:38:16.120Z,33.13
2022-08-08T21:40:54.774Z,33.32
2022-08-08T21:43:25.561Z,33.45
2022-08-08T21:48:03.906Z,32.87
2022-08-08T21:48:51.866Z,32.88
2022-08-08T21:54:31.171Z,32.69
2022-08-08T21:54:33.126Z,32.55
2022-08-08T21:56:59.975Z,32.52
2022-08-08T22:00:02.067Z,32.69
2022-08-08T22:02:19.585Z,32.23
2022-08-08T22:04:51.477Z,32.23
2022-08-08T22:07:19.687Z,32.56
2022-08-08T22:09:48.089Z,32.70
2022-08-08T22:12:17.299Z,32.95
2022-08-08T22:14:47.229Z,33.04
2022-08-08T22:17:19.444Z,32.85
2022-08-08T22:20:11.154Z,33.03
2022-08-08T22:22:38.619Z,33.36
2022-08-08T22:25:24.364Z,33.85
2022-08-08T22:28:03.986Z,33.93
2022-08-08T22:30:42.682Z,35.21
2022-08-08T22:34:11.047Z,36.00
2022-08-08T22:36:04.118Z,36.90
2022-08-08T22:38:47.990Z,37.87
2022-08-08T22:41:21.029Z,38.00
2022-08-08T22:44:02.755Z,38.75
2022-08-08T22:46:34.459Z,39.27
2022-08-08T22:49:09.011Z,39.69
2022-08-08T22:51:42.569Z,39.61
2022-08-08T22:54:30.756Z,39.24
2022-08-08T22:57:11.429Z,39.33
2022-08-08T22:59:58.804Z,39.82
2022-08-08T23:02:29.667Z,40.24
2022-08-08T23:05:05.005Z,40.69
2022-08-08T23:07:51.936Z,41.10
2022-08-08T23:10:25.489Z,41.13
2022-08-08T23:12:56.059Z,41.24
2022-08-08T23:16:38.157Z,41.62
2022-08-08T23:18:13.395Z,42.08
2022-08-08T23:20:44.477Z,42.51
2022-08-08T23:23:23.003Z,43.06
2022-08-08T23:25:51.242Z,43.43
2022-08-08T23:28:19.439Z,43.86
2022-08-08T23:30:48.095Z,44.14
2022-08-08T23:33:21.311Z,44.12
2022-08-08T23:36:09.241Z,44.51
2022-08-08T23:38:44.144Z,44.57
2022-08-08T23:41:23.115Z,44.83
2022-08-08T23:43:56.641Z,44.48
2022-08-08T23:49:05.065Z,44.14
2022-08-08T23:49:18.636Z,43.85
2022-08-08T23:52:05.069Z,44.06
2022-08-08T23:54:43.096Z,43.95
2022-08-08T23:57:26.266Z,44.07
